East Marion, NY (11939)

10:30 PM EST on November 26, 2014 (GMT -0500)
67 Steps, Greenport | Change Station
CLOSE
Current Station
Personal Weather Station
Location: Greenport, NY
Elevation: 40 ft
Nearby Weather Stations

Elev 40 ft 41.12 °N, 72.37 °W | Updated 4 minutes ago

Rain
Rain
37.0 °F
Feels Like 32 °F
N
7.0
Wind Variable Wind from NNW
Gusts 13.0 mph

Today
High -- | Low -- °F
--% Chance of Precip.
Yesterday
High -- | Low -- °F
Precip. -- in
6:49 AM 4:23 PM
Waxing Crescent, 25% visible
Pressure 29.68 in
Visibility 2.0 miles
Clouds Mostly Cloudy 100 ft
Overcast 600 ft
Windchill 32 °F
Dew Point 34 °F
Humidity 89%
Rainfall 1.38 in
Snow Depth Not available.
UV 0 out of 12
Pollen .10 out of 12
Air Quality Not available.
Flu Activity Not available.
METAR KSNC 270315Z AUTO 36014G22KT 2SM -RA BKN001 OVC006 01/00 A2968 RMK AO2 P0003

More Conditions Fewer Conditions

Pressure 29.68 in
Visibility 2.0 miles
Clouds Mostly Cloudy 100 ft
Overcast 600 ft
Windchill 32 °F
Dew Point 34 °F
Humidity 89%
Rainfall 1.38 in
Snow Depth Not available.
UV 0 out of 12
Pollen .10 out of 12
Air Quality Not available.
Flu Activity Not available.
METAR KSNC 270315Z AUTO 36014G22KT 2SM -RA BKN001 OVC006 01/00 A2968 RMK AO2 P0003

More Conditions Fewer Conditions

10-Day Weather Forecast

Almanac

Astronomy

Nov. 26, 2014 Rise Set
Actual Time
Civil Twilight
Nautical Twilight
Astronomical Twilight
Moon
Length of Visible Light
Length of Day
Tomorrow will be .
, % of the Moon is Illuminated

Today's Extremes

State Highs State Lows

Community

WunderPhotos

Upload Photos

1,773,949 photos uploaded!

WunderBlogs® & News

Nearby

Air Quality

  Air Quality AQ Index Pollutant
Not available.

Snow Depth

Station Depth Elevation

Earthquake Activity

City Distance Mag. Time & Date
Minimum magnitude displayed is 2.5.

Coastal Water Temperatures

Place Temperature

Nearby Weather Stations